Time;durP1;ratioP1;P1;durP2;ratioP2;P2;SDS_P1;SDS_P2;PMS_P1;PMS_P2;Temp;Humidity;BMP_temperature;BMP_pressure;BME280_temperature;BME280_humidity;BME280_pressure;Samples;Min_cycle;Max_cycle;Signal;HPM_P1;HPM_P2
2020/12/27 00:00:44;;;;;;;15.20;9.43;;;0.90;99.90;;;;;;5025463;28;20374;-65
2020/12/27 00:03:10;;;;;;;14.13;9.17;;;0.90;99.90;;;;;;5016389;28;20226;-67
2020/12/27 00:05:35;;;;;;;13.10;9.47;;;0.80;99.90;;;;;;5002855;28;20180;-67
2020/12/27 00:08:01;;;;;;;19.37;10.47;;;0.80;99.90;;;;;;5019286;28;20595;-65
2020/12/27 00:10:26;;;;;;;14.47;9.90;;;0.80;99.90;;;;;;5022141;28;20215;-67
2020/12/27 00:12:52;;;;;;;6.37;5.17;;;0.80;99.90;;;;;;5017295;28;20211;-66
2020/12/27 00:15:17;;;;;;;14.03;8.73;;;0.80;99.90;;;;;;5016200;28;20227;-67
2020/12/27 00:17:43;;;;;;;14.50;9.43;;;0.80;99.90;;;;;;5023550;28;20177;-66
2020/12/27 00:20:09;;;;;;;12.53;8.17;;;0.70;99.90;;;;;;5027815;28;20248;-66
2020/12/27 00:22:35;;;;;;;15.27;8.93;;;0.70;99.90;;;;;;5030564;28;20207;-66
2020/12/27 00:25:01;;;;;;;14.17;8.27;;;0.70;99.90;;;;;;5023186;28;20450;-65
2020/12/27 00:27:26;;;;;;;16.63;9.67;;;0.60;99.90;;;;;;5031770;28;20172;-65
2020/12/27 00:29:52;;;;;;;14.37;8.60;;;0.60;99.90;;;;;;5021892;28;20394;-66
2020/12/27 00:32:18;;;;;;;16.03;9.30;;;0.60;99.90;;;;;;5013807;28;20173;-66
2020/12/27 00:34:43;;;;;;;19.33;11.27;;;0.60;99.90;;;;;;5022800;28;20175;-65
2020/12/27 00:37:09;;;;;;;14.63;10.43;;;0.50;99.90;;;;;;5025781;28;20179;-65
2020/12/27 00:39:35;;;;;;;12.43;7.20;;;0.50;99.90;;;;;;5027660;28;20719;-65
2020/12/27 00:42:01;;;;;;;12.47;7.40;;;0.50;99.90;;;;;;5020170;28;20271;-65
2020/12/27 00:44:28;;;;;;;13.97;8.27;;;0.50;99.90;;;;;;5028427;28;20203;-66
2020/12/27 00:46:54;;;;;;;13.27;6.20;;;0.50;99.90;;;;;;5032387;28;20427;-67
2020/12/27 00:49:20;;;;;;;13.77;9.27;;;0.50;99.90;;;;;;5018494;28;20966;-67
2020/12/27 00:51:47;;;;;;;22.37;10.63;;;0.50;99.90;;;;;;5021488;28;20258;-67
2020/12/27 00:54:13;;;;;;;10.87;6.57;;;0.50;99.90;;;;;;5025796;28;20434;-65
2020/12/27 00:56:39;;;;;;;10.87;7.53;;;0.50;99.90;;;;;;5024263;28;21682;-65
2020/12/27 00:59:05;;;;;;;9.50;5.87;;;0.50;99.90;;;;;;5022468;28;20226;-65
2020/12/27 01:01:31;;;;;;;11.67;7.30;;;0.50;99.90;;;;;;5013691;28;20451;-65
2020/12/27 01:04:00;;;;;;;16.23;9.77;;;0.60;99.90;;;;;;5012397;28;20419;-64
2020/12/27 01:06:26;;;;;;;5.43;3.87;;;0.60;99.90;;;;;;4994656;28;20419;-65
2020/12/27 01:08:53;;;;;;;13.20;7.10;;;0.60;99.90;;;;;;5012576;28;20941;-66
2020/12/27 01:11:18;;;;;;;9.83;5.67;;;0.60;99.90;;;;;;5012571;28;20411;-66
2020/12/27 01:13:44;;;;;;;13.90;7.67;;;0.60;99.90;;;;;;5011332;28;20912;-67
2020/12/27 01:16:13;;;;;;;13.47;8.30;;;0.60;99.90;;;;;;5012444;28;20255;-64
2020/12/27 01:18:43;;;;;;;9.63;5.97;;;0.50;99.90;;;;;;5012282;28;20180;-65
2020/12/27 01:21:09;;;;;;;9.13;5.97;;;0.50;99.90;;;;;;5012388;28;20771;-65
2020/12/27 01:23:35;;;;;;;16.23;8.50;;;0.50;99.90;;;;;;5012248;28;20426;-66
2020/12/27 01:26:00;;;;;;;12.13;7.77;;;0.50;99.90;;;;;;5012115;28;20168;-65
2020/12/27 01:28:26;;;;;;;10.30;7.07;;;0.40;99.90;;;;;;5011976;28;20201;-65
2020/12/27 01:30:51;;;;;;;8.83;6.00;;;0.40;99.90;;;;;;5011868;28;20647;-65
2020/12/27 01:33:17;;;;;;;16.33;7.93;;;0.50;99.90;;;;;;5011997;28;20247;-67
2020/12/27 01:35:46;;;;;;;16.33;9.80;;;0.40;99.90;;;;;;5011911;28;20199;-66
2020/12/27 01:38:13;;;;;;;18.00;9.33;;;0.50;99.90;;;;;;5011953;28;20288;-65
2020/12/27 01:40:40;;;;;;;11.70;7.00;;;0.40;99.90;;;;;;5012255;28;20781;-65
2020/12/27 01:43:06;;;;;;;13.93;8.07;;;0.40;99.90;;;;;;5012067;28;20496;-65
2020/12/27 01:45:31;;;;;;;12.43;7.40;;;0.40;99.90;;;;;;5011838;28;20566;-65
2020/12/27 01:47:57;;;;;;;11.40;6.50;;;0.40;99.90;;;;;;5011896;28;20756;-66
2020/12/27 01:50:24;;;;;;;16.30;11.23;;;0.40;99.90;;;;;;5011598;28;20200;-66
2020/12/27 01:52:50;;;;;;;18.60;11.23;;;0.30;99.90;;;;;;5011776;28;20619;-67
2020/12/27 01:55:16;;;;;;;14.37;10.20;;;0.30;99.90;;;;;;5011619;28;20443;-66
2020/12/27 01:58:17;;;;;;;21.63;12.83;;;0.30;99.90;;;;;;5011591;28;20813;-66
2020/12/27 02:00:44;;;;;;;19.80;10.30;;;0.40;99.90;;;;;;5010725;28;20447;-67
2020/12/27 02:03:10;;;;;;;21.67;12.57;;;0.30;99.90;;;;;;4997510;28;20423;-67
2020/12/27 02:05:37;;;;;;;14.77;7.60;;;0.40;99.90;;;;;;5000323;28;20502;-66
2020/12/27 02:08:03;;;;;;;14.80;8.27;;;0.40;99.90;;;;;;5005948;28;20802;-65
2020/12/27 02:10:31;;;;;;;13.50;6.30;;;0.30;99.90;;;;;;5004666;28;20546;-66
2020/12/27 02:12:56;;;;;;;10.50;6.87;;;0.30;99.90;;;;;;4994921;28;20450;-67
2020/12/27 02:15:22;;;;;;;11.10;7.80;;;0.30;99.90;;;;;;5001760;28;20507;-67
2020/12/27 02:17:48;;;;;;;17.80;11.00;;;0.30;99.90;;;;;;4998263;28;20169;-66
2020/12/27 02:20:13;;;;;;;19.00;10.80;;;0.40;99.90;;;;;;5005233;28;20188;-66
2020/12/27 02:22:40;;;;;;;14.10;8.77;;;0.40;99.90;;;;;;5004790;28;20184;-66
2020/12/27 02:25:06;;;;;;;16.50;11.23;;;0.40;99.90;;;;;;5000001;28;20188;-65
2020/12/27 02:27:33;;;;;;;18.67;10.87;;;0.30;99.90;;;;;;4999926;28;20412;-65
2020/12/27 02:29:58;;;;;;;14.67;8.20;;;0.30;99.90;;;;;;5001060;28;20203;-65
2020/12/27 02:32:24;;;;;;;11.60;7.67;;;0.30;99.90;;;;;;4996834;28;20891;-66
2020/12/27 02:34:50;;;;;;;8.53;4.47;;;0.30;99.90;;;;;;4992905;28;20173;-65
2020/12/27 02:37:15;;;;;;;15.57;8.80;;;0.40;99.90;;;;;;4992802;28;20173;-65
2020/12/27 02:39:41;;;;;;;14.47;10.60;;;0.40;99.90;;;;;;4997682;28;20630;-67
2020/12/27 02:42:06;;;;;;;17.70;10.73;;;0.40;99.90;;;;;;5000185;28;20176;-66
2020/12/27 02:47:33;;;;;;;16.07;8.33;;;0.40;99.90;;;;;;4943395;29;20185;-67
2020/12/27 02:49:58;;;;;;;12.73;8.73;;;0.40;99.90;;;;;;4971481;28;20455;-67
2020/12/27 02:52:24;;;;;;;9.93;5.60;;;0.40;99.90;;;;;;5009463;28;20259;-66
2020/12/27 02:54:49;;;;;;;8.87;5.27;;;0.50;99.90;;;;;;5005296;28;20172;-65
2020/12/27 02:57:15;;;;;;;9.40;6.50;;;0.60;99.90;;;;;;4999056;28;20255;-66
2020/12/27 02:59:40;;;;;;;10.53;7.77;;;0.60;99.90;;;;;;4997271;28;20256;-64
2020/12/27 03:02:06;;;;;;;10.73;6.10;;;0.60;99.90;;;;;;5009311;28;20240;-67
2020/12/27 03:04:31;;;;;;;10.97;6.27;;;0.60;99.90;;;;;;5007198;28;20538;-66
2020/12/27 03:06:57;;;;;;;12.87;7.17;;;0.70;99.90;;;;;;5002263;28;20317;-67
2020/12/27 03:09:23;;;;;;;12.43;7.67;;;0.70;99.90;;;;;;5007754;28;20248;-67
2020/12/27 03:11:48;;;;;;;8.23;4.97;;;0.70;99.90;;;;;;5000731;28;20173;-66
2020/12/27 03:14:14;;;;;;;11.20;6.80;;;0.70;99.90;;;;;;4995536;28;20214;-66
2020/12/27 03:16:39;;;;;;;9.13;5.03;;;0.80;99.90;;;;;;5003286;28;20549;-65
2020/12/27 03:19:05;;;;;;;8.03;5.33;;;0.80;99.90;;;;;;4999741;28;20672;-65
2020/12/27 03:21:30;;;;;;;7.93;5.43;;;0.80;99.90;;;;;;4991418;28;20181;-64
2020/12/27 03:23:56;;;;;;;14.33;5.67;;;0.80;99.90;;;;;;5004433;28;20183;-65
2020/12/27 03:26:22;;;;;;;7.60;5.03;;;0.80;99.90;;;;;;5001081;28;20180;-67
2020/12/27 03:28:47;;;;;;;9.40;6.03;;;0.70;99.90;;;;;;4999095;28;20571;-66
2020/12/27 03:31:13;;;;;;;10.17;6.10;;;0.70;99.90;;;;;;4999897;28;21561;-64
2020/12/27 03:33:39;;;;;;;10.50;6.20;;;0.60;99.90;;;;;;4992592;28;20178;-66
2020/12/27 03:36:05;;;;;;;12.70;7.33;;;0.60;99.90;;;;;;4992014;28;20177;-65
2020/12/27 03:38:30;;;;;;;10.97;7.33;;;0.50;99.90;;;;;;4998929;28;20181;-67
2020/12/27 03:40:56;;;;;;;13.30;7.03;;;0.50;99.90;;;;;;4995923;28;20204;-66
2020/12/27 03:43:21;;;;;;;9.60;5.33;;;0.50;99.90;;;;;;4990506;28;20188;-66
2020/12/27 03:45:47;;;;;;;13.67;7.53;;;0.50;99.90;;;;;;4996283;28;20192;-65
2020/12/27 03:48:13;;;;;;;13.23;7.63;;;0.50;99.90;;;;;;4999530;28;20181;-66
2020/12/27 03:50:39;;;;;;;11.87;8.07;;;0.50;99.90;;;;;;5000154;28;20196;-65
2020/12/27 03:53:05;;;;;;;12.20;7.33;;;0.40;99.90;;;;;;5008231;28;20603;-65
2020/12/27 03:55:31;;;;;;;11.97;6.40;;;0.50;99.90;;;;;;5013358;28;20426;-66
2020/12/27 03:57:57;;;;;;;8.17;5.27;;;0.50;99.90;;;;;;5003075;28;20420;-66
2020/12/27 04:00:23;;;;;;;7.57;6.03;;;0.50;99.90;;;;;;4997821;28;20430;-66
2020/12/27 04:02:49;;;;;;;8.00;4.57;;;0.50;99.90;;;;;;5015572;28;20818;-67
2020/12/27 04:05:14;;;;;;;8.00;5.90;;;0.40;99.90;;;;;;5014026;28;20502;-66
2020/12/27 04:07:40;;;;;;;11.17;6.43;;;0.40;99.90;;;;;;4995925;28;20191;-64
2020/12/27 04:10:07;;;;;;;15.03;6.53;;;0.50;99.90;;;;;;5013814;28;20633;-66
2020/12/27 04:12:33;;;;;;;10.03;6.10;;;0.40;99.90;;;;;;5013521;28;20583;-64
2020/12/27 04:14:58;;;;;;;12.27;6.93;;;0.40;99.90;;;;;;4996118;28;20439;-66
2020/12/27 04:17:24;;;;;;;8.73;5.37;;;0.50;99.90;;;;;;5013519;28;20561;-66
2020/12/27 04:19:49;;;;;;;17.37;7.00;;;0.50;99.90;;;;;;5013482;28;20188;-64
2020/12/27 04:22:15;;;;;;;12.37;6.43;;;0.40;99.90;;;;;;5013889;28;20263;-66
2020/12/27 04:24:40;;;;;;;5.83;4.10;;;0.50;99.90;;;;;;5013412;28;20196;-67
2020/12/27 04:27:07;;;;;;;9.73;5.27;;;0.40;99.90;;;;;;5012180;28;20235;-67
2020/12/27 04:29:33;;;;;;;13.03;7.83;;;0.40;99.90;;;;;;5013536;28;20232;-67
2020/12/27 04:31:58;;;;;;;13.63;6.87;;;0.40;99.90;;;;;;5013241;28;20455;-66
2020/12/27 04:34:24;;;;;;;8.67;5.20;;;0.40;99.90;;;;;;5013238;28;20180;-65
2020/12/27 04:36:50;;;;;;;9.33;4.97;;;0.40;99.90;;;;;;4995715;28;20176;-67
2020/12/27 04:39:16;;;;;;;9.00;5.97;;;0.50;99.90;;;;;;5013336;28;20232;-63
2020/12/27 04:41:41;;;;;;;13.57;8.80;;;0.40;99.90;;;;;;5013263;28;20180;-65
2020/12/27 04:44:08;;;;;;;13.40;7.53;;;0.50;99.90;;;;;;5013103;28;20412;-65
2020/12/27 04:46:34;;;;;;;11.63;7.03;;;0.50;99.90;;;;;;5012908;28;20192;-65
2020/12/27 04:49:00;;;;;;;8.47;4.67;;;0.50;99.90;;;;;;5012961;28;20411;-65
2020/12/27 04:51:26;;;;;;;13.50;5.73;;;0.50;99.90;;;;;;5012798;28;20191;-64
2020/12/27 04:53:55;;;;;;;9.73;5.43;;;0.50;99.90;;;;;;5012786;28;20408;-67
2020/12/27 04:56:22;;;;;;;11.10;4.83;;;0.50;99.90;;;;;;5013087;28;20173;-65
2020/12/27 04:58:49;;;;;;;15.80;8.80;;;0.50;99.90;;;;;;5012840;28;20838;-65
2020/12/27 05:01:14;;;;;;;6.33;4.67;;;0.60;99.90;;;;;;5014449;28;20502;-65
2020/12/27 05:03:40;;;;;;;9.90;6.07;;;0.60;99.90;;;;;;5012360;28;20419;-65
2020/12/27 05:06:14;;;;;;;12.60;5.73;;;0.60;99.90;;;;;;5012608;28;20175;-66
2020/12/27 05:08:40;;;;;;;10.13;5.27;;;0.60;99.90;;;;;;5012280;28;20183;-65
2020/12/27 05:11:05;;;;;;;10.23;4.50;;;0.60;99.90;;;;;;5012341;28;20463;-65
2020/12/27 05:13:31;;;;;;;11.77;6.93;;;0.50;99.90;;;;;;5012370;28;20548;-65
2020/12/27 05:16:03;;;;;;;14.67;7.70;;;0.40;99.90;;;;;;5012427;28;20184;-66
2020/12/27 05:18:30;;;;;;;13.70;7.97;;;0.50;99.90;;;;;;4982485;28;20271;-65
2020/12/27 05:20:56;;;;;;;8.63;6.83;;;0.50;99.90;;;;;;5012255;28;20415;-66
2020/12/27 05:23:25;;;;;;;13.57;6.20;;;0.50;99.90;;;;;;4993492;28;20471;-65
2020/12/27 05:25:50;;;;;;;13.47;8.97;;;0.50;99.90;;;;;;5012229;28;20427;-65
2020/12/27 05:28:17;;;;;;;12.80;7.83;;;0.50;99.90;;;;;;5012073;28;21232;-65
2020/12/27 05:30:43;;;;;;;8.87;6.60;;;0.50;99.90;;;;;;5012087;28;20234;-66
2020/12/27 05:33:17;;;;;;;13.00;6.60;;;0.50;99.90;;;;;;5012008;28;20550;-64
2020/12/27 05:35:43;;;;;;;11.77;6.77;;;0.60;99.90;;;;;;5011918;28;20431;-65
2020/12/27 05:38:10;;;;;;;12.23;8.33;;;0.60;99.90;;;;;;5012340;28;20423;-66
2020/12/27 05:40:38;;;;;;;8.17;4.87;;;0.60;99.90;;;;;;5011984;28;20423;-64
2020/12/27 05:43:14;;;;;;;10.33;5.77;;;0.60;99.90;;;;;;5012264;28;20416;-65
2020/12/27 05:45:40;;;;;;;12.30;6.00;;;0.60;99.90;;;;;;5011726;28;20517;-65
2020/12/27 05:48:07;;;;;;;11.57;6.83;;;0.60;99.90;;;;;;5011994;28;20427;-66
2020/12/27 05:50:38;;;;;;;9.40;6.57;;;0.70;99.90;;;;;;5011614;28;20455;-65
2020/12/27 05:53:29;;;;;;;11.93;5.80;;;0.70;99.90;;;;;;5010256;28;20416;-66
2020/12/27 05:55:59;;;;;;;13.83;7.73;;;0.70;99.90;;;;;;5010822;28;20430;-67
2020/12/27 05:58:25;;;;;;;10.23;5.40;;;0.70;99.90;;;;;;5011744;28;20900;-65
2020/12/27 06:00:53;;;;;;;11.00;7.33;;;0.70;99.90;;;;;;5012819;28;20548;-67
2020/12/27 06:03:21;;;;;;;9.43;5.40;;;0.70;99.90;;;;;;5011573;28;20485;-66
2020/12/27 06:06:08;;;;;;;10.50;6.87;;;0.70;99.90;;;;;;5011202;28;20451;-65
2020/12/27 06:08:55;;;;;;;12.53;5.57;;;0.80;99.90;;;;;;5011701;28;20417;-66
2020/12/27 06:11:36;;;;;;;6.53;5.17;;;0.80;99.90;;;;;;5011558;28;20900;-66
2020/12/27 06:14:17;;;;;;;11.33;4.40;;;0.80;99.90;;;;;;5011297;28;20510;-66
2020/12/27 06:16:45;;;;;;;11.33;6.27;;;0.80;99.90;;;;;;5011362;28;20458;-65
2020/12/27 06:19:23;;;;;;;5.83;3.83;;;0.80;99.90;;;;;;5009500;28;20427;-64
2020/12/27 06:22:09;;;;;;;9.77;5.13;;;0.80;99.90;;;;;;5011148;28;20415;-65
2020/12/27 06:24:36;;;;;;;5.07;3.67;;;0.80;99.90;;;;;;5011131;28;20449;-65
2020/12/27 06:27:04;;;;;;;10.93;6.00;;;0.80;99.90;;;;;;5010946;28;21052;-66
2020/12/27 06:29:34;;;;;;;10.00;5.63;;;0.80;99.90;;;;;;5011117;28;20455;-67
2020/12/27 06:32:04;;;;;;;4.13;2.80;;;0.80;99.90;;;;;;5011471;28;20515;-66
2020/12/27 06:34:30;;;;;;;8.57;5.83;;;0.90;99.90;;;;;;5010877;28;20418;-64
2020/12/27 06:36:58;;;;;;;7.63;3.93;;;0.90;99.90;;;;;;5011227;28;20415;-64
2020/12/27 06:39:29;;;;;;;8.63;5.10;;;0.90;99.90;;;;;;5010982;28;20499;-66
2020/12/27 06:42:16;;;;;;;10.17;5.47;;;0.90;99.90;;;;;;5011187;28;20416;-66
2020/12/27 06:44:48;;;;;;;8.60;5.47;;;0.90;99.90;;;;;;5009386;28;20876;-65
2020/12/27 06:47:15;;;;;;;5.10;2.77;;;0.90;99.90;;;;;;5011225;28;20433;-66
2020/12/27 06:49:42;;;;;;;4.83;3.13;;;0.90;99.90;;;;;;5010586;28;20461;-65
2020/12/27 06:52:22;;;;;;;10.23;5.13;;;1.00;99.90;;;;;;5011085;28;20424;-63
2020/12/27 06:54:54;;;;;;;4.40;3.30;;;1.00;99.90;;;;;;5010859;28;20506;-66
2020/12/27 06:57:45;;;;;;;8.60;5.03;;;1.00;99.90;;;;;;5010864;28;20403;-65
2020/12/27 07:00:22;;;;;;;7.67;4.43;;;1.00;99.90;;;;;;5008818;28;20416;-64
2020/12/27 07:02:48;;;;;;;3.53;2.77;;;1.00;99.90;;;;;;4992583;28;20985;-66
2020/12/27 07:05:31;;;;;;;4.20;2.70;;;1.00;99.90;;;;;;5011555;28;20435;-65
2020/12/27 07:07:57;;;;;;;6.43;3.87;;;1.00;99.90;;;;;;5009176;28;20474;-65
2020/12/27 07:10:26;;;;;;;6.50;4.17;;;1.00;99.90;;;;;;5011466;28;20487;-65
2020/12/27 07:13:10;;;;;;;4.90;2.97;;;1.00;99.90;;;;;;4995558;28;20176;-66
2020/12/27 07:15:45;;;;;;;3.13;2.50;;;1.00;99.90;;;;;;5015316;28;20770;-66
2020/12/27 07:18:10;;;;;;;7.37;4.47;;;1.00;99.90;;;;;;5015031;28;20427;-67
2020/12/27 07:20:42;;;;;;;5.17;4.03;;;1.00;99.90;;;;;;5015195;28;20423;-67
2020/12/27 07:23:15;;;;;;;8.43;4.33;;;1.10;99.90;;;;;;5012785;28;20634;-67
2020/12/27 07:25:44;;;;;;;4.87;3.53;;;1.10;99.90;;;;;;5013239;28;20419;-65
2020/12/27 07:28:12;;;;;;;5.57;3.43;;;1.10;99.90;;;;;;5014807;28;20426;-64
2020/12/27 07:30:38;;;;;;;8.60;3.80;;;1.10;99.90;;;;;;5015152;28;20957;-66
2020/12/27 07:33:09;;;;;;;5.83;3.60;;;1.10;99.90;;;;;;5014878;28;20416;-67
2020/12/27 07:35:35;;;;;;;6.80;2.40;;;1.10;99.90;;;;;;5014966;28;20412;-64
2020/12/27 07:38:02;;;;;;;7.90;3.97;;;1.10;99.90;;;;;;5014613;28;20502;-65
2020/12/27 07:40:35;;;;;;;5.70;2.63;;;1.10;99.90;;;;;;5015027;28;20415;-65
2020/12/27 07:43:11;;;;;;;4.57;3.53;;;1.10;99.90;;;;;;5014394;28;20884;-67
2020/12/27 07:45:37;;;;;;;5.27;3.47;;;1.10;99.90;;;;;;5013993;28;20773;-66
2020/12/27 07:48:03;;;;;;;4.10;3.30;;;1.20;99.90;;;;;;5013867;28;20423;-65
2020/12/27 07:50:28;;;;;;;3.00;1.97;;;1.20;99.90;;;;;;5014223;28;20542;-65
2020/12/27 07:52:59;;;;;;;5.77;3.67;;;1.20;99.90;;;;;;5012765;28;20227;-66
2020/12/27 07:55:30;;;;;;;8.17;3.20;;;1.20;99.90;;;;;;5013079;28;20657;-67
2020/12/27 07:57:58;;;;;;;2.33;1.77;;;1.20;99.90;;;;;;5011522;28;20416;-65
2020/12/27 08:00:26;;;;;;;3.00;2.20;;;1.20;99.90;;;;;;5013012;28;20425;-65
2020/12/27 08:02:52;;;;;;;4.80;3.07;;;1.30;99.90;;;;;;5025883;28;20459;-65
2020/12/27 08:05:25;;;;;;;4.00;2.47;;;1.20;99.90;;;;;;5022256;28;20482;-66
2020/12/27 08:07:53;;;;;;;5.40;3.67;;;1.20;99.90;;;;;;5026446;28;20422;-65
2020/12/27 08:10:27;;;;;;;3.57;2.37;;;1.30;99.90;;;;;;5026540;28;20459;-64
2020/12/27 08:12:55;;;;;;;6.83;2.30;;;1.20;99.90;;;;;;5016377;28;20465;-65
2020/12/27 08:15:21;;;;;;;4.53;3.20;;;1.20;99.90;;;;;;5029629;28;20422;-66
2020/12/27 08:18:07;;;;;;;6.03;3.10;;;1.20;99.90;;;;;;5026073;28;20411;-64
2020/12/27 08:20:47;;;;;;;5.57;2.87;;;1.30;99.90;;;;;;5024876;28;20434;-66
2020/12/27 08:23:13;;;;;;;4.43;2.17;;;1.20;99.90;;;;;;5025296;28;20423;-66
2020/12/27 08:25:39;;;;;;;4.07;2.60;;;1.20;99.90;;;;;;5013131;28;20415;-67
2020/12/27 08:28:07;;;;;;;2.67;2.00;;;1.30;99.90;;;;;;5031191;28;20422;-66
2020/12/27 08:30:34;;;;;;;4.37;2.20;;;1.30;99.90;;;;;;5033091;28;20457;-64
2020/12/27 08:33:02;;;;;;;4.10;2.53;;;1.30;99.90;;;;;;5032809;28;20406;-65
2020/12/27 08:35:28;;;;;;;4.27;2.23;;;1.30;99.90;;;;;;5032845;28;20502;-66
2020/12/27 08:38:02;;;;;;;3.47;2.53;;;1.30;99.90;;;;;;5020529;28;20502;-65
2020/12/27 08:40:31;;;;;;;7.83;2.87;;;1.30;99.90;;;;;;5032743;28;20185;-67
2020/12/27 08:43:04;;;;;;;5.33;3.00;;;1.30;99.90;;;;;;5032405;28;20522;-67
2020/12/27 08:45:35;;;;;;;4.10;2.13;;;1.30;99.90;;;;;;5032788;28;20752;-66
2020/12/27 08:48:24;;;;;;;4.17;2.20;;;1.30;99.90;;;;;;5032854;28;20426;-68
2020/12/27 08:50:55;;;;;;;2.67;2.43;;;1.30;99.90;;;;;;5012274;28;20467;-66
2020/12/27 08:53:20;;;;;;;2.03;1.83;;;1.40;99.90;;;;;;5012522;28;20510;-64
2020/12/27 08:55:46;;;;;;;3.77;2.67;;;1.40;99.90;;;;;;5022557;28;20510;-64
2020/12/27 08:58:12;;;;;;;1.90;1.57;;;1.40;99.90;;;;;;5032767;28;20172;-66
2020/12/27 09:00:39;;;;;;;5.37;1.97;;;1.40;99.90;;;;;;5016954;28;20623;-65
2020/12/27 09:03:07;;;;;;;5.57;2.90;;;1.40;99.90;;;;;;5014376;28;20673;-65
2020/12/27 09:05:34;;;;;;;2.40;1.50;;;1.40;99.90;;;;;;5012653;28;20835;-66
2020/12/27 09:08:00;;;;;;;4.13;2.90;;;1.40;99.90;;;;;;5012756;28;20455;-65
2020/12/27 09:10:28;;;;;;;6.17;2.43;;;1.40;99.90;;;;;;5029022;28;20553;-64
2020/12/27 09:12:59;;;;;;;6.63;3.77;;;1.40;99.90;;;;;;5032044;28;20430;-66
2020/12/27 09:15:30;;;;;;;4.77;3.03;;;1.50;99.90;;;;;;5014569;28;20472;-64
2020/12/27 09:18:08;;;;;;;3.73;2.03;;;1.50;99.90;;;;;;5020358;28;20550;-64
2020/12/27 09:20:35;;;;;;;4.20;2.63;;;1.60;99.90;;;;;;5012075;28;20415;-68
2020/12/27 09:23:10;;;;;;;5.37;2.13;;;1.60;99.90;;;;;;5028255;28;20423;-66
2020/12/27 09:25:36;;;;;;;3.57;1.77;;;1.60;99.90;;;;;;5015206;28;20451;-63
2020/12/27 09:28:15;;;;;;;4.97;2.40;;;1.60;99.90;;;;;;5012193;28;20493;-66
2020/12/27 09:30:41;;;;;;;4.90;2.57;;;1.70;99.90;;;;;;5011624;28;20192;-64
2020/12/27 09:33:07;;;;;;;4.33;2.90;;;1.70;99.90;;;;;;5025160;28;20446;-64
2020/12/27 09:35:33;;;;;;;2.87;2.50;;;1.70;99.90;;;;;;5014809;28;20518;-65
2020/12/27 09:37:59;;;;;;;5.03;2.63;;;1.70;99.90;;;;;;5018756;28;20172;-65
2020/12/27 09:40:24;;;;;;;3.67;2.30;;;1.70;99.90;;;;;;5012060;28;20626;-64
2020/12/27 09:43:03;;;;;;;6.07;3.20;;;1.70;99.90;;;;;;5019000;28;20230;-66
2020/12/27 09:45:30;;;;;;;4.10;2.20;;;1.70;99.90;;;;;;5018160;28;20530;-65
2020/12/27 09:47:57;;;;;;;4.43;1.87;;;1.90;99.90;;;;;;5024567;28;20414;-64
2020/12/27 09:50:29;;;;;;;3.73;1.50;;;1.80;99.90;;;;;;5019020;28;21063;-66
2020/12/27 09:52:55;;;;;;;3.33;1.20;;;1.90;99.90;;;;;;5021173;28;20439;-66
2020/12/27 09:55:21;;;;;;;5.57;2.03;;;1.90;99.90;;;;;;5011810;28;20443;-67
2020/12/27 09:57:49;;;;;;;3.13;2.17;;;1.90;99.90;;;;;;5012317;28;20176;-66
2020/12/27 10:00:15;;;;;;;2.57;2.30;;;1.90;99.90;;;;;;5011495;28;20422;-64
2020/12/27 10:02:40;;;;;;;3.43;2.47;;;2.00;99.90;;;;;;5032739;28;20458;-65
2020/12/27 10:05:07;;;;;;;4.07;1.90;;;2.00;99.90;;;;;;5031417;28;20523;-65
2020/12/27 10:07:32;;;;;;;2.17;1.53;;;2.10;99.90;;;;;;5029718;28;20176;-67
2020/12/27 10:09:58;;;;;;;2.93;2.00;;;2.10;99.90;;;;;;5021229;28;20450;-67
2020/12/27 10:12:24;;;;;;;2.97;1.80;;;2.10;99.90;;;;;;5017855;28;20168;-66
2020/12/27 10:14:49;;;;;;;2.20;1.30;;;2.10;99.90;;;;;;5031176;28;20262;-67
2020/12/27 10:17:15;;;;;;;2.23;1.33;;;2.20;99.90;;;;;;5031076;28;20206;-64
2020/12/27 10:19:41;;;;;;;5.67;2.17;;;2.20;99.90;;;;;;5014730;28;21585;-65
2020/12/27 10:22:07;;;;;;;3.83;2.10;;;2.20;99.90;;;;;;5025098;28;20212;-66
2020/12/27 10:24:33;;;;;;;2.73;1.97;;;2.30;99.90;;;;;;5030254;28;20466;-68
2020/12/27 10:27:00;;;;;;;5.07;2.17;;;2.30;99.90;;;;;;5031093;28;20237;-64
2020/12/27 10:29:26;;;;;;;3.77;1.50;;;2.30;99.90;;;;;;5018669;28;20228;-65
2020/12/27 10:31:58;;;;;;;5.13;2.20;;;2.40;99.90;;;;;;5011304;28;20411;-65
2020/12/27 10:34:25;;;;;;;3.80;2.07;;;2.40;99.90;;;;;;5011338;28;20179;-66
2020/12/27 10:36:52;;;;;;;2.93;1.53;;;2.40;99.90;;;;;;5019216;28;20502;-64
2020/12/27 10:39:19;;;;;;;1.00;0.90;;;2.50;99.90;;;;;;5023592;28;20423;-67
2020/12/27 10:41:46;;;;;;;1.63;1.17;;;2.50;99.70;;;;;;5030258;28;20770;-65
2020/12/27 10:44:12;;;;;;;3.10;1.60;;;2.50;99.60;;;;;;5013225;28;20418;-65
2020/12/27 10:46:38;;;;;;;2.30;1.03;;;2.50;99.40;;;;;;5022671;28;20458;-64
2020/12/27 10:49:05;;;;;;;4.03;1.30;;;2.60;99.40;;;;;;5018582;28;20446;-64
2020/12/27 10:51:37;;;;;;;4.40;1.90;;;2.60;99.40;;;;;;5023966;28;20430;-64
2020/12/27 10:54:04;;;;;;;1.70;1.13;;;2.60;99.50;;;;;;5025849;28;20430;-64
2020/12/27 10:56:30;;;;;;;2.00;1.37;;;2.70;99.20;;;;;;5030981;28;20764;-64
2020/12/27 10:58:55;;;;;;;2.87;1.40;;;2.70;99.00;;;;;;5031969;28;20429;-65
2020/12/27 11:01:21;;;;;;;2.53;1.43;;;2.70;99.10;;;;;;5035192;28;20203;-66
2020/12/27 11:03:47;;;;;;;1.63;1.50;;;2.80;98.60;;;;;;5025690;28;20258;-68
2020/12/27 11:06:13;;;;;;;2.63;1.23;;;2.70;98.50;;;;;;5019435;28;20187;-63
2020/12/27 11:08:38;;;;;;;1.70;1.20;;;2.80;99.00;;;;;;5017854;28;20686;-66
2020/12/27 11:11:04;;;;;;;1.53;1.43;;;2.80;98.10;;;;;;5022041;28;20270;-66
2020/12/27 11:13:29;;;;;;;1.17;1.07;;;2.80;97.70;;;;;;5017902;28;20498;-66
2020/12/27 11:15:55;;;;;;;5.67;1.23;;;2.80;98.10;;;;;;5029908;28;20168;-64
2020/12/27 11:18:20;;;;;;;1.83;1.70;;;2.80;97.80;;;;;;5026405;28;20176;-65
2020/12/27 11:20:46;;;;;;;2.97;1.50;;;2.80;98.30;;;;;;5024503;28;20176;-66
2020/12/27 11:23:12;;;;;;;1.47;1.37;;;2.80;98.10;;;;;;5020148;28;20648;-63
2020/12/27 11:25:37;;;;;;;1.77;1.40;;;2.90;98.00;;;;;;5022180;28;20191;-64
2020/12/27 11:28:03;;;;;;;2.03;1.40;;;2.90;97.70;;;;;;5023019;28;20601;-65
2020/12/27 11:30:29;;;;;;;1.87;1.40;;;3.00;97.20;;;;;;5020176;28;20208;-65
2020/12/27 11:32:54;;;;;;;2.03;1.50;;;3.00;97.60;;;;;;5024396;28;20176;-65
2020/12/27 11:35:20;;;;;;;1.83;0.97;;;3.10;97.30;;;;;;5023323;28;20175;-65
2020/12/27 11:37:46;;;;;;;1.03;0.93;;;3.10;97.20;;;;;;5030448;28;20168;-63
2020/12/27 11:40:11;;;;;;;1.90;1.50;;;3.10;97.10;;;;;;5020505;28;20255;-65
2020/12/27 11:42:37;;;;;;;1.47;1.00;;;3.20;97.10;;;;;;5024043;28;20187;-67
2020/12/27 11:45:04;;;;;;;1.73;0.97;;;3.20;96.80;;;;;;5020034;28;20707;-63
2020/12/27 11:47:29;;;;;;;1.27;1.17;;;3.20;97.00;;;;;;5021203;28;20216;-67
2020/12/27 11:49:55;;;;;;;1.83;1.20;;;3.20;96.70;;;;;;5017501;28;20481;-66
2020/12/27 11:52:24;;;;;;;1.30;0.67;;;3.20;96.90;;;;;;5019909;28;20181;-65
2020/12/27 11:54:51;;;;;;;1.47;1.27;;;3.20;96.70;;;;;;5016905;28;20181;-64
2020/12/27 11:57:16;;;;;;;2.27;1.10;;;3.30;97.20;;;;;;5013420;28;20415;-64
2020/12/27 11:59:42;;;;;;;2.57;1.83;;;3.30;96.60;;;;;;5029064;28;20418;-65
2020/12/27 12:02:07;;;;;;;1.17;1.07;;;3.30;97.00;;;;;;5028897;28;20215;-65
2020/12/27 12:04:33;;;;;;;1.97;1.37;;;3.30;97.10;;;;;;5013270;28;20187;-64
2020/12/27 12:06:58;;;;;;;2.20;1.33;;;3.30;97.10;;;;;;5026834;28;20208;-65
2020/12/27 12:09:24;;;;;;;2.33;1.40;;;3.30;97.00;;;;;;5023165;28;20188;-65
2020/12/27 12:11:49;;;;;;;2.73;1.67;;;3.40;97.20;;;;;;5015749;28;20172;-66
2020/12/27 12:14:15;;;;;;;1.50;1.13;;;3.40;97.10;;;;;;5018260;28;20184;-66
2020/12/27 12:16:40;;;;;;;2.97;1.33;;;3.40;97.20;;;;;;5012212;28;20177;-65
2020/12/27 12:19:06;;;;;;;2.70;1.30;;;3.40;97.20;;;;;;5013477;28;20525;-65
2020/12/27 12:21:32;;;;;;;3.83;1.53;;;3.40;97.20;;;;;;5013300;28;20177;-64
2020/12/27 12:23:59;;;;;;;2.43;1.70;;;3.40;97.50;;;;;;5013259;28;20179;-64
2020/12/27 12:26:27;;;;;;;1.77;1.43;;;3.40;98.20;;;;;;5017191;28;20625;-67
2020/12/27 12:28:53;;;;;;;1.13;1.03;;;3.50;97.80;;;;;;5022716;28;20753;-64
2020/12/27 12:31:19;;;;;;;2.10;0.93;;;3.50;97.40;;;;;;5027045;28;20473;-65
2020/12/27 12:33:46;;;;;;;2.80;1.20;;;3.60;97.30;;;;;;5013389;28;20411;-65
2020/12/27 12:36:13;;;;;;;3.43;1.10;;;3.60;97.60;;;;;;5029699;28;20230;-63
2020/12/27 12:38:39;;;;;;;2.53;1.30;;;3.60;97.40;;;;;;5032717;28;20497;-65
2020/12/27 12:41:05;;;;;;;1.47;1.13;;;3.60;97.70;;;;;;5032505;28;20545;-65
2020/12/27 12:43:31;;;;;;;1.53;1.40;;;3.60;97.80;;;;;;5032784;28;20672;-66
2020/12/27 12:46:00;;;;;;;2.00;0.77;;;3.60;97.50;;;;;;5015078;28;20419;-63
2020/12/27 12:48:25;;;;;;;1.50;1.00;;;3.70;97.60;;;;;;5032794;28;20187;-65
2020/12/27 12:50:51;;;;;;;7.13;3.53;;;3.70;97.50;;;;;;5022811;28;20451;-66
2020/12/27 12:53:17;;;;;;;1.50;1.00;;;3.70;97.70;;;;;;5024159;28;20175;-64
2020/12/27 12:55:43;;;;;;;3.37;1.37;;;3.80;97.60;;;;;;5013919;28;20534;-65
2020/12/27 12:58:08;;;;;;;3.70;1.37;;;3.80;97.60;;;;;;5027797;28;20243;-64